Es ist keine erhöhte Aufmerksamkeit aufgrund des Wetters notwendig.    Es gibt keine Warnungen.
Webcam Vorhersage DWD Regenradar Wetterlage NRW Blitze Wind GFS-Modell
webcam


Kleve - Düffelward SSO more information Kleve - Düffelward SSO


Goch more information Goch


Weitere Templates dieser Seite und andere Webseiten:

Meteotemplate

Awekas - Template

weather34 - Template

Wetter im Erzgebirge


te
World Weather Websites
Bo-Rox Wetter Topsites List
 

METAR-Meldungen aus der Umgebung

   
EDLV - Goch
Aktualisierung: 21-11-2019 23:50
Nicht aktuell
Teilweise bewölkt  
Teilweise bewölkt  
   Wind: SO 14.8 km/h
Wind: SO 14.8 km/h
Temperatur: 4°C
Gefühlt: 1°C
Taupunkt: 3°C
Luftfeuchte: 93%
Luftdruck: 1005 hPa
Bewölkt: Teilweise bewölkt
Sichtbarkeit: 7 km
Bewölkung: Teilweise bewölkt
EDLV 212250Z 14008KT 7000 NSC 04/03 Q1005
EDLV - Emmerich
Aktualisierung: 21-11-2019 23:50
Nicht aktuell
Teilweise bewölkt  
Teilweise bewölkt  
   Wind: SO 14.8 km/h
Wind: SO 14.8 km/h
Temperatur: 4°C
Gefühlt: 1°C
Taupunkt: 3°C
Luftfeuchte: 93%
Luftdruck: 1005 hPa
Bewölkt: Teilweise bewölkt
Sichtbarkeit: 7 km
Bewölkung: Teilweise bewölkt
EDLV 212250Z 14008KT 7000 NSC 04/03 Q1005
EHDL - Nijmegen
Aktualisierung: 22-11-2019 01:55
Nebel, Bewölkt  
Nebel, Bewölkt  
   Wind: SO 13 km/h
Wind: SO 13 km/h
Temperatur: 3°C
Gefühlt: -1°C
Taupunkt: 3°C
Luftfeuchte: 100%
Luftdruck: 1005 hPa
Bewölkt: Bewölkt
Sichtbarkeit: 7 km
Bewölkung: Bewölkt 19000 ft
EHDL 220055Z AUTO 13007KT 080V190 7000 BR OVC190 03/03 Q1005 WHT
EHDL - Arnhem
Aktualisierung: 22-11-2019 01:55
Nebel, Bewölkt  
Nebel, Bewölkt  
   Wind: SO 13 km/h
Wind: SO 13 km/h
Temperatur: 3°C
Gefühlt: -1°C
Taupunkt: 3°C
Luftfeuchte: 100%
Luftdruck: 1005 hPa
Bewölkt: Bewölkt
Sichtbarkeit: 7 km
Bewölkung: Bewölkt 19000 ft
EHDL 220055Z AUTO 13007KT 080V190 7000 BR OVC190 03/03 Q1005 WHT
EDLV - Kalkar
Aktualisierung: 21-11-2019 23:50
Nicht aktuell
Teilweise bewölkt  
Teilweise bewölkt  
   Wind: SO 14.8 km/h
Wind: SO 14.8 km/h
Temperatur: 4°C
Gefühlt: 1°C
Taupunkt: 3°C
Luftfeuchte: 93%
Luftdruck: 1005 hPa
Bewölkt: Teilweise bewölkt
Sichtbarkeit: 7 km
Bewölkung: Teilweise bewölkt
EDLV 212250Z 14008KT 7000 NSC 04/03 Q1005
 

Script entwickelt von  Saratoga-weather.org Angepasst für das Template von  Weerstation Leuven

Sie finden Wetter-Infos dieser Station auch auf:

UK Metoffice

European Weather Network

WeatherCloud

Weather Underground

Germany Weather Network

AWEKAS

Neuwetter

Wettersektor

Von uns verwendete Ausrüstung:

Wetterstation
Davis Vantage Pro2

Wetterprogramm
Meteobridge

WetterComputer
Computer

Davis Vantage Pro2

Meteobridge

Computer